Time;durP1;ratioP1;P1;durP2;ratioP2;P2;SDS_P1;SDS_P2;PMS_P1;PMS_P2;Temp;Humidity;BMP_temperature;BMP_pressure;BME280_temperature;BME280_humidity;BME280_pressure;Samples;Min_cycle;Max_cycle;Signal;HPM_P1;HPM_P2
2022/03/26 00:00:44;;;;;;;45.53;18.60;;;7.40;90.10;;;;;;5031786;28;20866;-73
2022/03/26 00:03:11;;;;;;;36.13;17.23;;;7.40;90.30;;;;;;5031363;28;20485;-73
2022/03/26 00:05:38;;;;;;;38.13;16.70;;;7.40;90.40;;;;;;5031410;28;20461;-73
2022/03/26 00:08:05;;;;;;;40.20;18.57;;;7.40;90.30;;;;;;5031251;28;20788;-73
2022/03/26 00:10:32;;;;;;;36.07;16.90;;;7.30;90.30;;;;;;5030950;28;20463;-73
2022/03/26 00:12:58;;;;;;;38.37;18.03;;;7.30;90.40;;;;;;5031061;28;20999;-73
2022/03/26 00:15:27;;;;;;;40.33;17.77;;;7.30;90.50;;;;;;5031251;28;20450;-73
2022/03/26 00:17:54;;;;;;;40.93;17.67;;;7.30;90.50;;;;;;5030992;28;20472;-73
2022/03/26 00:20:21;;;;;;;37.97;18.20;;;7.20;90.70;;;;;;5031244;28;20476;-73
2022/03/26 00:22:48;;;;;;;38.17;17.10;;;7.20;90.80;;;;;;5030866;28;20507;-73
2022/03/26 00:25:16;;;;;;;37.53;16.37;;;7.20;90.90;;;;;;5030635;28;20449;-73
2022/03/26 00:27:43;;;;;;;45.07;19.53;;;7.10;90.70;;;;;;5030904;28;20980;-73
2022/03/26 00:30:11;;;;;;;41.37;18.03;;;7.10;90.80;;;;;;5031008;28;20453;-73
2022/03/26 00:32:39;;;;;;;38.60;17.07;;;7.10;90.90;;;;;;5030987;28;20453;-73
2022/03/26 00:35:09;;;;;;;39.63;17.27;;;7.10;91.10;;;;;;5030099;28;20944;-73
2022/03/26 00:37:36;;;;;;;36.07;16.07;;;7.00;91.10;;;;;;5030969;28;20512;-73
2022/03/26 00:40:03;;;;;;;39.30;15.87;;;7.00;91.20;;;;;;5030793;28;20453;-73
2022/03/26 00:42:30;;;;;;;34.43;17.43;;;6.90;91.40;;;;;;5031068;28;20457;-73
2022/03/26 00:44:56;;;;;;;41.47;18.20;;;6.90;91.40;;;;;;5030030;28;20508;-73
2022/03/26 00:47:23;;;;;;;37.90;17.00;;;6.90;91.70;;;;;;5030989;28;20607;-73
2022/03/26 00:49:51;;;;;;;40.63;16.57;;;6.80;91.80;;;;;;5030985;28;20772;-73
2022/03/26 00:52:18;;;;;;;38.77;17.63;;;6.80;92.00;;;;;;5030515;28;20453;-73
2022/03/26 00:54:45;;;;;;;41.03;18.43;;;6.80;92.00;;;;;;5030153;28;20946;-73
2022/03/26 00:57:11;;;;;;;36.73;17.27;;;6.80;92.20;;;;;;5030600;28;20499;-73
2022/03/26 00:59:38;;;;;;;34.40;17.13;;;6.80;92.20;;;;;;5034273;28;20508;-73
2022/03/26 01:02:05;;;;;;;39.70;16.97;;;6.80;92.30;;;;;;5034756;28;20445;-74
2022/03/26 01:04:32;;;;;;;32.43;17.03;;;6.80;92.30;;;;;;5034497;28;20481;-74
2022/03/26 01:07:00;;;;;;;39.53;17.83;;;6.80;92.40;;;;;;5034822;28;20599;-74
2022/03/26 01:09:26;;;;;;;38.23;17.20;;;6.80;92.50;;;;;;5034421;28;20926;-74
2022/03/26 01:11:53;;;;;;;39.03;17.30;;;6.80;92.60;;;;;;5034712;28;20502;-74
2022/03/26 01:14:21;;;;;;;38.40;16.90;;;6.80;92.70;;;;;;5034280;28;20446;-74
2022/03/26 01:16:47;;;;;;;37.90;17.33;;;6.80;92.90;;;;;;5034276;28;20465;-74
2022/03/26 01:19:14;;;;;;;39.50;18.33;;;6.70;93.00;;;;;;5034505;28;20500;-74
2022/03/26 01:21:41;;;;;;;41.20;18.67;;;6.70;93.10;;;;;;5018228;28;20469;-74
2022/03/26 01:24:09;;;;;;;38.80;18.70;;;6.60;93.30;;;;;;5014395;28;20540;-74
2022/03/26 01:26:36;;;;;;;46.83;18.43;;;6.60;93.40;;;;;;5014357;28;20462;-74
2022/03/26 01:29:04;;;;;;;39.43;17.57;;;6.50;93.50;;;;;;5027350;28;21012;-74
2022/03/26 01:31:30;;;;;;;44.60;18.40;;;6.50;93.60;;;;;;5033890;28;20640;-74
2022/03/26 01:33:57;;;;;;;39.73;18.60;;;6.50;93.50;;;;;;5033858;28;20769;-74
2022/03/26 01:36:24;;;;;;;41.20;17.60;;;6.50;93.60;;;;;;5033816;28;20871;-74
2022/03/26 01:38:50;;;;;;;38.73;17.83;;;6.50;93.90;;;;;;5033769;28;20523;-74
2022/03/26 01:41:20;;;;;;;38.17;17.60;;;6.50;94.00;;;;;;5034023;28;20453;-74
2022/03/26 01:43:47;;;;;;;42.17;18.40;;;6.50;94.20;;;;;;5033996;28;20492;-74
2022/03/26 01:46:14;;;;;;;35.60;18.53;;;6.40;94.50;;;;;;5033963;28;20449;-74
2022/03/26 01:48:41;;;;;;;41.80;18.60;;;6.40;94.60;;;;;;5033677;28;20473;-74
2022/03/26 01:51:15;;;;;;;42.90;18.67;;;6.40;94.70;;;;;;5033778;28;20449;-73
2022/03/26 01:53:43;;;;;;;39.83;18.63;;;6.30;94.80;;;;;;5033193;28;20524;-73
2022/03/26 01:56:11;;;;;;;52.43;18.47;;;6.30;95.20;;;;;;5033889;28;20452;-74
2022/03/26 01:58:39;;;;;;;45.03;18.33;;;6.30;95.40;;;;;;5033866;28;20535;-74
2022/03/26 02:01:06;;;;;;;46.00;19.13;;;6.30;95.60;;;;;;5033544;28;20802;-74
2022/03/26 02:03:32;;;;;;;34.50;18.30;;;6.30;95.90;;;;;;5033402;28;20477;-74
2022/03/26 02:05:59;;;;;;;43.30;18.73;;;6.30;96.00;;;;;;5033712;28;20456;-74
2022/03/26 02:08:26;;;;;;;38.90;18.20;;;6.30;96.30;;;;;;5033375;28;20956;-74
2022/03/26 02:10:53;;;;;;;40.27;18.80;;;6.30;96.60;;;;;;5032177;28;20474;-74
2022/03/26 02:13:19;;;;;;;40.47;19.10;;;6.30;96.60;;;;;;5033577;28;20445;-74
2022/03/26 02:15:48;;;;;;;41.93;17.60;;;6.30;96.70;;;;;;5033793;28;20519;-74
2022/03/26 02:18:15;;;;;;;50.53;18.93;;;6.30;96.80;;;;;;5033530;28;20477;-73
2022/03/26 02:20:44;;;;;;;42.53;18.67;;;6.30;96.90;;;;;;5033136;28;20457;-74
2022/03/26 02:23:11;;;;;;;43.90;18.63;;;6.30;97.00;;;;;;5032970;28;20465;-74
2022/03/26 02:25:37;;;;;;;45.80;18.13;;;6.30;97.10;;;;;;5033436;28;20496;-73
2022/03/26 02:28:04;;;;;;;38.50;18.27;;;6.30;97.40;;;;;;5033047;28;20465;-73
2022/03/26 02:30:33;;;;;;;40.30;18.97;;;6.20;97.60;;;;;;5032978;28;20937;-74
2022/03/26 02:32:59;;;;;;;40.77;18.70;;;6.20;97.80;;;;;;5033023;28;20468;-74
2022/03/26 02:35:26;;;;;;;44.90;18.40;;;6.10;98.00;;;;;;5032405;28;20454;-74
2022/03/26 02:37:54;;;;;;;40.50;18.47;;;6.00;98.30;;;;;;5032796;28;21007;-74
2022/03/26 02:40:21;;;;;;;45.27;17.83;;;6.00;98.80;;;;;;5033028;28;20470;-74
2022/03/26 02:42:47;;;;;;;40.13;18.80;;;6.00;99.20;;;;;;5032543;28;20457;-74
2022/03/26 02:45:14;;;;;;;42.70;18.27;;;5.90;99.40;;;;;;5032835;28;20489;-74
2022/03/26 02:47:41;;;;;;;40.10;18.40;;;5.90;99.70;;;;;;5032494;28;20989;-73
2022/03/26 02:50:09;;;;;;;46.57;18.77;;;5.80;99.90;;;;;;5032845;28;20457;-73
2022/03/26 02:52:36;;;;;;;42.90;19.90;;;5.80;99.90;;;;;;5032137;28;21093;-74
2022/03/26 02:55:05;;;;;;;46.37;19.20;;;5.80;99.90;;;;;;5032612;28;20445;-74
2022/03/26 02:57:32;;;;;;;44.67;20.17;;;5.70;99.90;;;;;;5032364;28;20473;-74
2022/03/26 02:59:58;;;;;;;43.83;18.33;;;5.70;99.90;;;;;;5032298;28;20823;-74
2022/03/26 03:02:25;;;;;;;44.53;19.70;;;5.60;99.90;;;;;;5032243;28;21011;-74
2022/03/26 03:04:52;;;;;;;40.27;19.60;;;5.60;99.90;;;;;;5032282;28;20546;-74
2022/03/26 03:07:18;;;;;;;36.97;17.70;;;5.60;99.90;;;;;;5032300;28;20534;-74
2022/03/26 03:09:45;;;;;;;44.57;18.90;;;5.60;99.90;;;;;;5032503;28;20478;-73
2022/03/26 03:12:13;;;;;;;44.30;19.83;;;5.50;99.90;;;;;;5032327;28;20453;-74
2022/03/26 03:14:40;;;;;;;50.73;19.63;;;5.50;99.90;;;;;;5031971;28;20442;-74
2022/03/26 03:17:06;;;;;;;41.83;19.17;;;5.40;99.90;;;;;;5032268;28;20473;-74
2022/03/26 03:19:33;;;;;;;43.93;19.47;;;5.40;99.90;;;;;;5032563;28;20450;-74
2022/03/26 03:21:59;;;;;;;40.27;18.90;;;5.40;99.90;;;;;;5012930;28;20516;-74
2022/03/26 03:24:26;;;;;;;42.43;19.10;;;5.40;99.90;;;;;;5012148;28;20489;-74
2022/03/26 03:26:53;;;;;;;47.53;20.33;;;5.40;99.90;;;;;;5012023;28;20973;-74
2022/03/26 03:29:21;;;;;;;42.40;19.00;;;5.40;99.90;;;;;;5027018;28;20457;-74
2022/03/26 03:31:48;;;;;;;43.20;19.33;;;5.30;99.90;;;;;;5032073;28;20457;-74
2022/03/26 03:34:15;;;;;;;43.20;19.30;;;5.30;99.90;;;;;;5031772;28;20450;-74
2022/03/26 03:36:42;;;;;;;43.77;18.70;;;5.30;99.90;;;;;;5031150;28;20456;-74
2022/03/26 03:39:09;;;;;;;46.53;19.40;;;5.30;99.90;;;;;;5031976;28;20458;-74
2022/03/26 03:41:35;;;;;;;41.97;18.30;;;5.30;99.90;;;;;;5032100;28;20453;-74
2022/03/26 03:44:03;;;;;;;45.50;20.83;;;5.30;99.90;;;;;;5031422;28;20481;-74
2022/03/26 03:46:33;;;;;;;43.60;20.03;;;5.30;99.90;;;;;;5032136;28;20460;-74
2022/03/26 03:48:59;;;;;;;45.13;20.37;;;5.30;99.90;;;;;;5031648;28;20476;-74
2022/03/26 03:51:27;;;;;;;46.63;20.90;;;5.30;99.90;;;;;;5032159;28;20457;-73
2022/03/26 03:53:53;;;;;;;55.73;20.80;;;5.30;99.90;;;;;;5030845;28;20759;-74
2022/03/26 03:56:20;;;;;;;45.40;20.23;;;5.30;99.90;;;;;;5031687;28;20512;-74
2022/03/26 03:58:47;;;;;;;48.83;21.93;;;5.20;99.90;;;;;;5031396;28;20942;-74
2022/03/26 04:01:14;;;;;;;53.33;20.67;;;5.20;99.90;;;;;;5031362;28;20941;-74
2022/03/26 04:03:42;;;;;;;45.43;21.60;;;5.20;99.90;;;;;;5030877;28;20485;-74
2022/03/26 04:06:08;;;;;;;50.93;21.10;;;5.20;99.90;;;;;;5031307;28;20445;-74
2022/03/26 04:08:35;;;;;;;43.20;20.50;;;5.20;99.90;;;;;;5031122;28;20461;-74
2022/03/26 04:11:02;;;;;;;46.00;20.20;;;5.20;99.90;;;;;;5031523;28;20445;-74
2022/03/26 04:13:28;;;;;;;53.50;22.30;;;5.30;99.90;;;;;;5031021;28;20503;-74
2022/03/26 04:15:55;;;;;;;53.40;22.50;;;5.30;99.90;;;;;;5031363;28;20933;-73
2022/03/26 04:18:23;;;;;;;47.87;21.63;;;5.30;99.90;;;;;;5031058;28;20473;-74
2022/03/26 04:20:51;;;;;;;48.83;20.37;;;5.20;99.90;;;;;;5030887;28;20953;-74
2022/03/26 04:23:19;;;;;;;55.00;21.40;;;5.20;99.90;;;;;;5031012;28;20453;-74
2022/03/26 04:25:46;;;;;;;45.27;21.43;;;5.20;99.90;;;;;;5031352;28;20489;-74
2022/03/26 04:28:12;;;;;;;46.63;20.17;;;5.20;99.90;;;;;;5031042;28;20473;-74
2022/03/26 04:30:39;;;;;;;46.73;21.57;;;5.20;99.90;;;;;;5031065;28;20449;-74
2022/03/26 04:33:06;;;;;;;61.70;21.80;;;5.10;99.90;;;;;;5030273;28;20481;-74
2022/03/26 04:35:33;;;;;;;45.83;20.50;;;5.10;99.90;;;;;;5030167;28;21013;-74
2022/03/26 04:38:02;;;;;;;60.10;22.53;;;5.00;99.90;;;;;;5030874;28;20469;-74
2022/03/26 04:40:29;;;;;;;50.63;21.00;;;5.00;99.90;;;;;;5030759;28;20511;-74
2022/03/26 04:42:56;;;;;;;59.70;22.80;;;5.00;99.90;;;;;;5030616;28;20445;-74
2022/03/26 04:45:24;;;;;;;62.93;24.27;;;4.90;99.90;;;;;;5030572;28;20489;-74
2022/03/26 04:47:50;;;;;;;47.73;21.60;;;4.90;99.90;;;;;;5030756;28;20457;-74
2022/03/26 04:50:17;;;;;;;49.87;22.60;;;4.90;99.90;;;;;;5030821;28;20868;-74
2022/03/26 04:52:43;;;;;;;45.37;22.57;;;4.80;99.90;;;;;;5030532;28;20867;-74
2022/03/26 04:55:12;;;;;;;49.63;21.57;;;4.80;99.90;;;;;;5030329;28;20445;-74
2022/03/26 04:57:39;;;;;;;49.53;23.07;;;4.80;99.90;;;;;;5030577;28;20476;-74
2022/03/26 05:00:08;;;;;;;55.90;22.30;;;4.70;99.90;;;;;;5030306;28;20980;-73
2022/03/26 05:02:36;;;;;;;56.97;22.67;;;4.70;99.90;;;;;;5030876;28;20449;-74
2022/03/26 05:05:03;;;;;;;50.00;23.10;;;4.70;99.90;;;;;;5030416;28;20488;-74
2022/03/26 05:07:48;;;;;;;50.50;21.77;;;4.70;99.90;;;;;;5030501;28;20973;-74
2022/03/26 05:10:17;;;;;;;45.70;22.00;;;4.70;99.90;;;;;;5030966;28;20542;-74
2022/03/26 05:12:44;;;;;;;50.90;21.90;;;4.70;99.90;;;;;;5030381;28;20490;-74
2022/03/26 05:15:11;;;;;;;52.53;22.60;;;4.70;99.90;;;;;;5030461;28;20445;-74
2022/03/26 05:17:38;;;;;;;53.77;23.40;;;4.70;99.90;;;;;;5030607;28;20555;-74
2022/03/26 05:20:07;;;;;;;53.27;22.50;;;4.70;99.90;;;;;;5027198;28;20939;-74
2022/03/26 05:22:34;;;;;;;55.93;22.13;;;4.70;99.90;;;;;;5010887;28;20512;-74
2022/03/26 05:25:00;;;;;;;46.00;22.60;;;4.70;99.90;;;;;;5009965;28;20532;-74
2022/03/26 05:27:28;;;;;;;53.17;22.07;;;4.70;99.90;;;;;;5010489;28;20850;-74
2022/03/26 05:29:55;;;;;;;50.93;23.30;;;4.70;99.90;;;;;;5030237;28;20449;-74
2022/03/26 05:32:22;;;;;;;57.43;22.57;;;4.70;99.90;;;;;;5030937;28;20475;-74
2022/03/26 05:34:50;;;;;;;52.20;22.70;;;4.80;99.90;;;;;;5029595;28;20809;-74
2022/03/26 05:37:17;;;;;;;56.07;21.37;;;4.80;99.90;;;;;;5030189;28;20849;-74
2022/03/26 05:39:44;;;;;;;54.50;22.27;;;4.90;99.90;;;;;;5030388;28;20477;-74
2022/03/26 05:42:11;;;;;;;52.67;22.27;;;4.90;99.90;;;;;;5030302;28;20519;-74
2022/03/26 05:44:39;;;;;;;55.83;21.67;;;4.90;99.90;;;;;;5031902;28;20531;-74
2022/03/26 05:47:06;;;;;;;54.97;23.40;;;5.00;99.90;;;;;;5033730;28;20523;-74
2022/03/26 05:49:33;;;;;;;49.20;22.17;;;5.00;99.90;;;;;;5034159;28;20840;-74
2022/03/26 05:52:00;;;;;;;51.80;22.30;;;5.20;99.90;;;;;;5033578;28;20451;-74
2022/03/26 05:54:26;;;;;;;51.57;23.20;;;5.40;99.90;;;;;;5033715;28;20457;-73
2022/03/26 05:56:53;;;;;;;58.67;23.00;;;5.50;99.90;;;;;;5033389;28;20992;-74
2022/03/26 05:59:21;;;;;;;50.03;22.77;;;5.70;99.90;;;;;;5033827;28;20449;-74
2022/03/26 06:01:49;;;;;;;57.17;23.17;;;5.90;99.90;;;;;;5033571;28;20460;-74
2022/03/26 06:04:16;;;;;;;47.30;21.47;;;6.00;99.90;;;;;;5033441;28;20445;-73
2022/03/26 06:06:43;;;;;;;46.50;22.40;;;6.20;99.90;;;;;;5033074;28;20511;-74
2022/03/26 06:09:10;;;;;;;55.20;23.27;;;6.30;99.90;;;;;;5033803;28;20747;-74
2022/03/26 06:11:37;;;;;;;56.60;23.00;;;6.50;99.90;;;;;;5033377;28;20445;-74
2022/03/26 06:14:06;;;;;;;55.60;24.40;;;6.60;99.90;;;;;;5033332;28;20499;-74
2022/03/26 06:16:34;;;;;;;46.37;19.97;;;6.80;99.90;;;;;;5033568;28;20936;-74
2022/03/26 06:19:02;;;;;;;48.40;21.93;;;7.10;99.90;;;;;;5033512;28;20473;-74
2022/03/26 06:21:29;;;;;;;57.43;23.73;;;7.40;99.90;;;;;;5018651;28;20720;-74
2022/03/26 06:23:58;;;;;;;52.00;23.40;;;7.70;99.90;;;;;;5013611;28;20508;-74
2022/03/26 06:26:24;;;;;;;50.77;22.60;;;8.00;99.90;;;;;;5013324;28;20539;-74
2022/03/26 06:28:51;;;;;;;53.43;23.97;;;8.30;99.90;;;;;;5024615;28;20520;-74
2022/03/26 06:31:17;;;;;;;44.10;22.77;;;8.60;99.90;;;;;;5032969;28;20468;-74
2022/03/26 06:33:44;;;;;;;52.77;24.40;;;8.90;99.90;;;;;;5032616;28;20495;-74
2022/03/26 06:36:13;;;;;;;48.57;21.80;;;9.20;99.90;;;;;;5032573;28;20457;-74
2022/03/26 06:38:41;;;;;;;52.70;23.37;;;9.60;99.90;;;;;;5032692;28;20473;-74
2022/03/26 06:41:09;;;;;;;50.30;23.43;;;10.00;99.90;;;;;;5033000;28;20453;-74
2022/03/26 06:43:36;;;;;;;59.47;24.20;;;10.10;99.90;;;;;;5032876;28;20484;-74
2022/03/26 06:46:03;;;;;;;50.63;25.17;;;10.30;99.90;;;;;;5032885;28;20488;-74
2022/03/26 06:48:30;;;;;;;53.27;24.30;;;10.50;99.90;;;;;;5032603;28;21055;-74
2022/03/26 06:50:57;;;;;;;57.17;23.37;;;10.70;99.90;;;;;;5032866;28;20755;-74
2022/03/26 06:53:24;;;;;;;50.33;24.10;;;10.90;99.90;;;;;;5032047;28;20507;-74
2022/03/26 06:55:51;;;;;;;47.40;24.13;;;11.10;99.90;;;;;;5031910;28;20890;-74
2022/03/26 06:58:18;;;;;;;51.60;22.43;;;11.30;99.90;;;;;;5032878;28;20473;-74
2022/03/26 07:00:44;;;;;;;52.10;23.93;;;11.40;99.90;;;;;;5032886;28;20514;-74
2022/03/26 07:03:11;;;;;;;51.77;25.07;;;11.50;99.90;;;;;;5032346;28;20453;-74
2022/03/26 07:05:38;;;;;;;47.53;22.87;;;11.80;99.90;;;;;;5032418;28;20488;-74
2022/03/26 07:08:05;;;;;;;54.93;23.97;;;12.10;99.90;;;;;;5032247;28;20560;-74
2022/03/26 07:10:35;;;;;;;50.30;23.97;;;12.30;99.90;;;;;;5032109;28;20511;-74
2022/03/26 07:13:01;;;;;;;50.53;25.23;;;12.50;99.50;;;;;;5032402;28;20464;-74
2022/03/26 07:15:30;;;;;;;53.10;24.67;;;12.70;99.20;;;;;;5032218;28;20804;-74
2022/03/26 07:17:57;;;;;;;49.40;25.10;;;12.70;98.90;;;;;;5031933;28;20474;-74
2022/03/26 07:20:23;;;;;;;47.20;23.90;;;12.80;99.30;;;;;;5032184;28;20499;-74
2022/03/26 07:22:50;;;;;;;54.00;26.33;;;12.80;99.00;;;;;;5032033;28;20569;-74
2022/03/26 07:25:17;;;;;;;54.80;24.97;;;12.80;99.00;;;;;;5031956;28;20543;-74
2022/03/26 07:27:45;;;;;;;46.93;24.37;;;12.90;98.90;;;;;;5031570;28;20473;-74
2022/03/26 07:30:12;;;;;;;50.77;25.47;;;12.80;98.70;;;;;;5032079;28;20515;-74
2022/03/26 07:32:39;;;;;;;55.73;25.70;;;12.70;98.80;;;;;;5031915;28;20453;-74
2022/03/26 07:35:07;;;;;;;52.87;25.10;;;12.60;99.00;;;;;;5031213;28;20457;-74
2022/03/26 07:37:33;;;;;;;46.50;26.23;;;12.60;99.20;;;;;;5031590;28;20888;-74
2022/03/26 07:40:00;;;;;;;50.23;24.77;;;12.60;99.30;;;;;;5031893;28;20446;-75
2022/03/26 07:42:27;;;;;;;55.07;25.27;;;12.70;99.40;;;;;;5031863;28;20453;-74
2022/03/26 07:44:55;;;;;;;53.87;25.90;;;12.80;99.50;;;;;;5031805;28;20445;-74
2022/03/26 07:47:22;;;;;;;58.33;25.97;;;12.90;99.20;;;;;;5031886;28;20599;-74
2022/03/26 07:49:49;;;;;;;51.37;23.50;;;13.00;99.40;;;;;;5031732;28;20503;-75
2022/03/26 07:52:16;;;;;;;52.73;24.77;;;13.10;99.00;;;;;;5031474;28;20461;-74
2022/03/26 07:54:42;;;;;;;51.70;25.87;;;13.10;99.20;;;;;;5031481;28;20969;-75
2022/03/26 07:57:09;;;;;;;56.77;27.17;;;13.10;99.00;;;;;;5031644;28;20465;-74
2022/03/26 07:59:36;;;;;;;49.50;25.17;;;13.20;99.20;;;;;;5031331;28;20442;-74
2022/03/26 08:02:04;;;;;;;52.30;26.50;;;13.30;99.40;;;;;;5031831;28;20983;-75
2022/03/26 08:04:31;;;;;;;57.73;26.53;;;13.50;98.80;;;;;;5031326;28;20869;-75
2022/03/26 08:06:58;;;;;;;51.90;25.50;;;13.50;99.00;;;;;;5031477;28;20562;-75
2022/03/26 08:09:24;;;;;;;53.10;25.50;;;13.60;98.60;;;;;;5031307;28;20527;-74
2022/03/26 08:11:51;;;;;;;50.87;27.40;;;13.90;98.40;;;;;;5031480;28;21008;-75
2022/03/26 08:14:17;;;;;;;54.27;27.40;;;14.00;98.00;;;;;;5031092;28;20594;-75
2022/03/26 08:16:44;;;;;;;54.53;25.97;;;14.20;97.80;;;;;;5030994;28;20449;-75
2022/03/26 08:19:12;;;;;;;49.33;27.30;;;14.40;97.90;;;;;;5031201;28;20507;-75
2022/03/26 08:21:39;;;;;;;59.10;27.53;;;14.60;97.90;;;;;;5015307;28;20458;-75
2022/03/26 08:24:06;;;;;;;52.20;26.07;;;14.80;97.30;;;;;;5011024;28;20834;-75
2022/03/26 08:26:32;;;;;;;51.87;27.03;;;15.20;97.80;;;;;;5011364;28;20744;-75
2022/03/26 08:29:01;;;;;;;55.87;25.23;;;15.40;96.50;;;;;;5023415;28;20466;-75
2022/03/26 08:31:29;;;;;;;57.33;27.30;;;15.40;96.50;;;;;;5031076;28;20475;-75
2022/03/26 08:33:56;;;;;;;59.40;26.90;;;15.50;96.10;;;;;;5030932;28;20453;-75
2022/03/26 08:36:24;;;;;;;60.40;30.20;;;15.50;96.30;;;;;;5030747;28;20491;-75
2022/03/26 08:38:51;;;;;;;56.63;28.50;;;15.60;96.70;;;;;;5030673;28;20556;-74
2022/03/26 08:41:20;;;;;;;50.73;26.63;;;15.80;97.10;;;;;;5031101;28;20508;-75
2022/03/26 08:43:47;;;;;;;61.77;29.87;;;16.20;96.40;;;;;;5030995;28;20510;-75
2022/03/26 08:46:14;;;;;;;60.20;27.87;;;16.50;95.00;;;;;;5031041;28;20489;-75
2022/03/26 08:48:41;;;;;;;52.60;27.93;;;16.80;94.70;;;;;;5030965;28;20473;-75
2022/03/26 08:51:07;;;;;;;48.77;27.63;;;16.90;94.50;;;;;;5031560;28;20453;-75
2022/03/26 08:53:35;;;;;;;50.73;28.40;;;17.10;94.80;;;;;;5030088;28;20954;-75
2022/03/26 08:56:04;;;;;;;59.33;28.00;;;17.30;94.60;;;;;;5030718;28;20527;-75
2022/03/26 08:58:30;;;;;;;54.33;27.93;;;17.40;94.10;;;;;;5031126;28;20871;-75
2022/03/26 09:00:57;;;;;;;63.13;27.77;;;17.70;93.90;;;;;;5030946;28;20697;-75
2022/03/26 09:03:24;;;;;;;53.73;27.80;;;17.80;93.20;;;;;;5030726;28;20453;-75
2022/03/26 09:05:52;;;;;;;52.30;28.03;;;17.90;93.00;;;;;;5030802;28;20493;-75
2022/03/26 09:08:19;;;;;;;54.23;27.80;;;17.80;93.00;;;;;;5030555;28;20443;-75
2022/03/26 09:10:47;;;;;;;54.90;28.00;;;17.90;93.40;;;;;;5030799;28;20830;-75
2022/03/26 09:13:15;;;;;;;64.63;27.63;;;18.10;93.70;;;;;;5030727;28;20424;-75
2022/03/26 09:15:41;;;;;;;51.80;27.00;;;18.30;93.10;;;;;;5030677;28;20801;-75
2022/03/26 09:18:09;;;;;;;51.10;28.60;;;18.50;92.90;;;;;;5030762;28;20527;-75
2022/03/26 09:20:36;;;;;;;48.60;27.93;;;18.60;92.30;;;;;;5033972;28;20514;-75
2022/03/26 09:23:03;;;;;;;52.13;27.87;;;18.70;92.10;;;;;;5034372;28;20464;-75
2022/03/26 09:25:30;;;;;;;56.00;28.90;;;18.80;91.40;;;;;;5034282;28;20907;-75
2022/03/26 09:27:58;;;;;;;52.97;28.20;;;18.80;91.90;;;;;;5034558;28;20448;-75
2022/03/26 09:30:24;;;;;;;54.90;29.20;;;19.00;92.60;;;;;;5034475;28;20461;-75
2022/03/26 09:32:51;;;;;;;57.57;30.30;;;19.20;91.50;;;;;;5034537;28;20449;-75
2022/03/26 09:35:18;;;;;;;50.73;27.60;;;19.30;92.20;;;;;;5033685;28;20945;-75
2022/03/26 09:37:45;;;;;;;53.93;27.60;;;19.70;92.00;;;;;;5034334;28;20475;-75
2022/03/26 09:40:13;;;;;;;56.13;29.37;;;19.90;91.00;;;;;;5034350;28;20716;-75
2022/03/26 09:42:40;;;;;;;51.43;28.20;;;20.00;90.70;;;;;;5034281;28;20428;-75
2022/03/26 09:45:10;;;;;;;50.10;27.90;;;20.00;90.50;;;;;;5033819;28;20445;-75
2022/03/26 09:47:37;;;;;;;46.63;28.30;;;20.00;90.60;;;;;;5034088;28;20489;-75
2022/03/26 09:50:06;;;;;;;54.53;30.63;;;20.20;90.10;;;;;;5034142;28;20457;-75
2022/03/26 09:52:34;;;;;;;52.80;29.70;;;20.40;90.60;;;;;;5033645;28;20428;-75
2022/03/26 09:55:00;;;;;;;56.63;28.33;;;20.50;89.20;;;;;;5033903;28;20445;-75
2022/03/26 09:57:27;;;;;;;51.83;28.90;;;20.60;89.30;;;;;;5034264;28;20461;-75
2022/03/26 09:59:54;;;;;;;57.13;28.10;;;20.70;90.20;;;;;;5033949;28;20445;-75
2022/03/26 10:02:22;;;;;;;58.13;26.00;;;20.70;89.70;;;;;;5033794;28;20460;-75
2022/03/26 10:04:48;;;;;;;38.60;25.00;;;20.70;86.00;;;;;;5033807;28;21014;-75
2022/03/26 10:07:15;;;;;;;53.87;25.93;;;20.80;85.90;;;;;;5033668;28;20493;-75
2022/03/26 10:09:44;;;;;;;50.37;27.13;;;20.90;86.20;;;;;;5033797;28;20516;-75
2022/03/26 10:12:12;;;;;;;50.73;27.57;;;21.00;84.90;;;;;;5033578;28;20453;-75
2022/03/26 10:14:44;;;;;;;52.53;28.27;;;21.20;85.50;;;;;;5033243;28;20453;-75
2022/03/26 10:17:14;;;;;;;56.07;29.03;;;21.10;84.30;;;;;;5033498;28;20469;-75
2022/03/26 10:19:48;;;;;;;52.83;27.80;;;21.00;85.70;;;;;;5033484;28;20453;-75
2022/03/26 10:22:33;;;;;;;48.93;27.07;;;20.90;86.90;;;;;;5013650;28;20459;-75
2022/03/26 10:25:02;;;;;;;49.07;28.00;;;21.10;85.40;;;;;;5013350;28;20450;-75
2022/03/26 10:27:33;;;;;;;49.20;29.07;;;21.20;86.90;;;;;;5013537;28;20493;-75
2022/03/26 10:30:00;;;;;;;53.20;27.70;;;21.30;88.50;;;;;;5013234;28;20446;-75
2022/03/26 10:32:40;;;;;;;57.80;28.30;;;21.50;87.80;;;;;;5012949;28;20956;-75
2022/03/26 10:35:10;;;;;;;58.20;29.20;;;21.80;87.10;;;;;;5012976;28;20435;-75
2022/03/26 10:37:56;;;;;;;50.80;27.70;;;21.90;85.30;;;;;;5013271;28;20466;-75
2022/03/26 10:40:40;;;;;;;45.97;24.10;;;21.70;84.80;;;;;;5013630;28;20435;-75
2022/03/26 10:43:10;;;;;;;51.60;25.00;;;21.50;83.20;;;;;;5013137;28;20430;-75
2022/03/26 10:45:47;;;;;;;48.73;27.57;;;21.50;84.90;;;;;;5013770;28;20454;-75
2022/03/26 10:48:14;;;;;;;54.90;27.30;;;21.40;85.10;;;;;;5013378;28;20466;-75
2022/03/26 10:50:42;;;;;;;44.47;23.83;;;21.50;85.70;;;;;;5013178;28;20505;-75
2022/03/26 10:53:11;;;;;;;54.70;24.53;;;21.70;82.50;;;;;;5012973;28;20863;-75
2022/03/26 10:55:40;;;;;;;38.70;22.33;;;21.70;79.30;;;;;;5031844;28;20485;-75
2022/03/26 10:58:08;;;;;;;41.60;23.20;;;21.20;79.40;;;;;;5032346;28;20985;-75
2022/03/26 11:00:35;;;;;;;41.00;21.13;;;21.00;83.90;;;;;;5033150;28;20457;-75
2022/03/26 11:03:02;;;;;;;37.27;20.40;;;20.90;80.20;;;;;;5032520;28;20464;-75
2022/03/26 11:05:30;;;;;;;44.33;23.20;;;21.10;81.80;;;;;;5032377;28;20492;-75
2022/03/26 11:07:59;;;;;;;45.87;23.17;;;21.20;80.50;;;;;;5032428;28;20485;-75
2022/03/26 11:10:26;;;;;;;46.53;21.00;;;21.30;81.70;;;;;;5032794;28;20453;-75
2022/03/26 11:12:53;;;;;;;43.00;20.87;;;21.30;79.30;;;;;;5032604;28;20435;-75
2022/03/26 11:15:24;;;;;;;41.30;22.07;;;21.30;77.60;;;;;;5032359;28;20526;-74
2022/03/26 11:18:06;;;;;;;39.67;19.87;;;21.40;78.10;;;;;;5032230;28;20468;-75
2022/03/26 11:21:08;;;;;;;32.93;18.20;;;21.20;78.40;;;;;;5031831;28;20503;-75
2022/03/26 11:23:53;;;;;;;35.40;18.13;;;21.10;79.70;;;;;;5028402;28;21027;-75
2022/03/26 11:26:36;;;;;;;38.83;20.90;;;21.40;77.80;;;;;;5031813;28;20453;-75
2022/03/26 11:29:36;;;;;;;42.63;22.63;;;21.60;79.90;;;;;;5031752;28;20900;-75
2022/03/26 11:32:12;;;;;;;37.60;22.40;;;21.70;77.60;;;;;;5032135;28;20515;-75
2022/03/26 11:34:39;;;;;;;33.63;21.00;;;21.60;76.00;;;;;;5031175;28;20445;-74
2022/03/26 11:37:10;;;;;;;42.57;20.90;;;21.40;77.20;;;;;;5031965;28;20503;-74
2022/03/26 11:39:45;;;;;;;35.93;20.40;;;21.70;77.50;;;;;;5031733;28;20452;-75
2022/03/26 11:42:12;;;;;;;35.73;20.70;;;21.40;78.50;;;;;;5031959;28;20449;-75
2022/03/26 11:44:44;;;;;;;39.80;21.37;;;21.30;79.50;;;;;;5031490;28;20480;-75
2022/03/26 11:53:08;;;;;;;42.03;19.77;;;21.80;74.70;;;;;;5031028;28;20452;-75
2022/03/26 11:55:45;;;;;;;40.40;19.30;;;22.10;76.10;;;;;;5031320;28;20472;-74
2022/03/26 11:58:20;;;;;;;39.10;20.60;;;22.00;74.80;;;;;;5031151;28;20473;-75
2022/03/26 12:00:55;;;;;;;31.87;18.80;;;21.80;73.40;;;;;;5031325;28;20445;-75
2022/03/26 12:03:22;;;;;;;32.37;17.70;;;21.70;76.40;;;;;;5030843;28;20453;-75
2022/03/26 12:08:35;;;;;;;29.20;16.77;;;21.80;72.60;;;;;;5031395;28;21070;-75
2022/03/26 12:11:04;;;;;;;33.77;17.33;;;22.00;73.50;;;;;;5031217;28;20480;-75
2022/03/26 12:13:34;;;;;;;29.73;15.83;;;21.80;73.10;;;;;;5031054;28;20968;-75
2022/03/26 12:16:01;;;;;;;33.10;15.80;;;21.90;74.00;;;;;;5030885;28;20510;-75
2022/03/26 12:18:32;;;;;;;29.93;17.70;;;22.20;71.70;;;;;;5031132;28;20519;-75
2022/03/26 12:21:07;;;;;;;38.37;17.90;;;22.10;71.70;;;;;;5020592;28;20458;-75
2022/03/26 12:23:34;;;;;;;30.53;17.20;;;22.20;74.50;;;;;;5011193;28;20457;-75
2022/03/26 12:26:05;;;;;;;30.03;16.40;;;22.20;71.00;;;;;;5011311;28;20498;-75
2022/03/26 12:28:33;;;;;;;34.37;17.73;;;22.20;72.30;;;;;;5019601;28;20904;-75
2022/03/26 12:31:04;;;;;;;31.47;16.40;;;22.50;71.70;;;;;;5031827;28;20851;-75
2022/03/26 12:33:39;;;;;;;26.33;14.37;;;22.40;70.50;;;;;;5031006;28;20464;-75
2022/03/26 12:36:06;;;;;;;31.43;15.03;;;22.50;70.50;;;;;;5030744;28;20820;-75
2022/03/26 12:38:33;;;;;;;39.70;16.10;;;22.60;68.70;;;;;;5030815;28;20469;-75
2022/03/26 12:41:02;;;;;;;35.00;16.87;;;22.50;72.50;;;;;;5030453;28;20937;-75
2022/03/26 12:43:30;;;;;;;32.63;17.07;;;22.50;71.20;;;;;;5030895;28;20453;-75
2022/03/26 12:45:59;;;;;;;40.73;17.70;;;22.70;71.40;;;;;;5030678;28;20527;-75